Time;durP1;ratioP1;P1;durP2;ratioP2;P2;SDS_P1;SDS_P2;PMS_P1;PMS_P2;Temp;Humidity;BMP_temperature;BMP_pressure;BME280_temperature;BME280_humidity;BME280_pressure;Samples;Min_cycle;Max_cycle;Signal;HPM_P1;HPM_P2
2022/01/25 00:08:54;;;;;;;54.65;37.08;;;5.40;99.90;;;;;;5093152;28;20055;-80
2022/01/25 00:25:17;;;;;;;55.28;36.50;;;5.30;99.90;;;;;;5091843;28;20139;-80
2022/01/25 00:28:04;;;;;;;;;;;5.30;99.90;;;;;;5075183;28;20548;-80
2022/01/25 00:30:42;;;;;;;52.78;36.63;;;5.30;99.90;;;;;;5077133;28;20010;-80
2022/01/25 00:33:08;;;;;;;56.28;38.53;;;5.30;99.90;;;;;;5093164;28;20079;-80
2022/01/25 00:35:33;;;;;;;56.10;37.53;;;5.30;99.90;;;;;;5091506;28;20075;-80
2022/01/25 00:37:59;;;;;;;55.30;38.10;;;5.30;99.90;;;;;;5091972;28;20051;-80
2022/01/25 00:40:25;;;;;;;54.30;38.60;;;5.30;99.90;;;;;;5091512;28;20040;-80
2022/01/25 00:42:50;;;;;;;56.73;38.80;;;5.30;99.90;;;;;;5074726;28;20480;-79
2022/01/25 00:45:19;;;;;;;56.00;37.33;;;5.30;99.90;;;;;;5075130;28;20052;-80
2022/01/25 00:47:48;;;;;;;53.15;38.42;;;5.30;99.90;;;;;;5092619;28;20521;-80
2022/01/25 00:50:15;;;;;;;53.97;36.67;;;5.30;99.90;;;;;;5091597;28;20048;-79
2022/01/25 00:55:12;;;;;;;56.97;36.97;;;5.20;99.90;;;;;;5092768;28;20074;-80
2022/01/25 00:57:39;;;;;;;52.80;37.13;;;5.30;99.90;;;;;;5091555;28;20087;-82
2022/01/25 01:00:08;;;;;;;51.65;35.53;;;5.30;99.90;;;;;;5092077;28;20044;-81
2022/01/25 01:02:34;;;;;;;57.20;39.75;;;5.30;99.90;;;;;;5095454;28;20044;-81
2022/01/25 01:05:00;;;;;;;55.23;38.30;;;5.30;99.90;;;;;;5095585;28;20052;-81
2022/01/25 01:07:25;;;;;;;53.10;37.47;;;5.30;99.90;;;;;;5095342;28;20086;-81
2022/01/25 01:09:53;;;;;;;55.47;40.67;;;5.30;99.90;;;;;;5062517;28;20051;-80
2022/01/25 01:15:35;;;;;;;55.50;36.92;;;5.20;99.90;;;;;;5066985;28;20055;-81
2022/01/25 01:43:55;;;;;;;52.03;36.13;;;5.30;99.90;;;;;;5095597;28;20052;-81
2022/01/25 01:46:34;;;;;;;53.83;37.28;;;5.30;99.90;;;;;;5094825;28;20063;-81
2022/01/25 01:49:02;;;;;;;52.83;37.58;;;5.40;99.90;;;;;;5080221;28;20052;-81
2022/01/25 01:51:33;;;;;;;57.22;38.22;;;5.30;99.90;;;;;;5078668;28;20125;-81
2022/01/25 01:54:07;;;;;;;53.90;39.08;;;5.30;99.90;;;;;;5095163;28;20396;-81
2022/01/25 01:56:33;;;;;;;54.75;37.47;;;5.30;99.90;;;;;;5095716;28;20055;-81
2022/01/25 01:59:01;;;;;;;54.28;38.17;;;5.30;99.90;;;;;;5095944;28;20131;-81
2022/01/25 02:01:29;;;;;;;56.63;37.92;;;5.30;99.90;;;;;;5094618;28;20047;-81
2022/01/25 02:03:58;;;;;;;54.22;38.72;;;5.30;99.90;;;;;;5094382;28;20048;-81
2022/01/25 02:06:24;;;;;;;52.72;37.47;;;5.30;99.90;;;;;;5077868;28;20060;-81
2022/01/25 02:08:50;;;;;;;52.87;37.30;;;5.30;99.90;;;;;;5094508;28;20062;-81
2022/01/25 02:11:16;;;;;;;57.08;38.80;;;5.30;99.90;;;;;;5094395;28;20058;-81
2022/01/25 02:13:42;;;;;;;55.30;38.35;;;5.30;99.90;;;;;;5093251;28;20101;-81
2022/01/25 02:16:16;;;;;;;55.97;39.75;;;5.30;99.90;;;;;;5094494;28;20048;-81
2022/01/25 02:24:10;;;;;;;57.50;39.75;;;5.30;99.90;;;;;;5094413;28;20484;-81
2022/01/25 02:26:36;;;;;;;56.87;39.53;;;5.30;99.90;;;;;;5094112;28;20051;-81
2022/01/25 02:29:02;;;;;;;55.33;39.07;;;5.20;99.90;;;;;;5094388;28;20193;-80
2022/01/25 02:31:28;;;;;;;56.80;38.13;;;5.30;99.90;;;;;;5095211;28;20052;-81
2022/01/25 02:33:53;;;;;;;55.23;38.23;;;5.30;99.90;;;;;;5093986;28;20300;-81
2022/01/25 02:36:26;;;;;;;54.70;39.87;;;5.30;99.90;;;;;;5095336;28;20135;-81
2022/01/25 02:38:53;;;;;;;55.63;37.00;;;5.20;99.90;;;;;;5093831;28;20445;-81
2022/01/25 02:41:19;;;;;;;57.97;38.83;;;5.30;99.90;;;;;;5077297;28;20052;-81
2022/01/25 02:43:46;;;;;;;56.87;39.40;;;5.30;99.90;;;;;;5093211;28;20048;-81
2022/01/25 02:48:55;;;;;;;59.90;39.45;;;5.30;99.90;;;;;;5093726;28;20173;-81
2022/01/25 02:51:25;;;;;;;57.95;39.53;;;5.30;99.90;;;;;;5094870;28;20048;-81
2022/01/25 02:53:51;;;;;;;56.08;38.03;;;5.30;99.90;;;;;;5093562;28;20056;-80
2022/01/25 02:56:19;;;;;;;56.03;39.38;;;5.30;99.90;;;;;;5093727;28;20052;-80
2022/01/25 02:58:45;;;;;;;55.85;37.97;;;5.30;99.90;;;;;;5093556;28;20097;-81
2022/01/25 03:01:11;;;;;;;54.55;38.45;;;5.30;99.90;;;;;;5060341;28;20051;-80
2022/01/25 03:03:37;;;;;;;54.63;37.40;;;5.20;99.90;;;;;;5093657;28;20048;-80
2022/01/25 03:06:04;;;;;;;55.55;37.55;;;5.20;99.90;;;;;;5093644;28;20048;-81
2022/01/25 03:08:30;;;;;;;53.35;38.63;;;5.30;99.90;;;;;;5076779;28;20052;-80
2022/01/25 03:10:56;;;;;;;55.17;38.20;;;5.30;99.90;;;;;;5093305;28;20121;-81
2022/01/25 03:13:27;;;;;;;58.70;38.43;;;5.30;99.90;;;;;;5076691;28;20044;-81
2022/01/25 03:16:01;;;;;;;59.90;40.63;;;5.30;99.90;;;;;;5092885;28;20044;-81
2022/01/25 03:21:03;;;;;;;53.75;36.75;;;5.20;99.90;;;;;;5077115;28;20086;-80
2022/01/25 03:23:31;;;;;;;55.10;38.47;;;5.30;99.90;;;;;;5094146;28;20109;-80
2022/01/25 03:25:57;;;;;;;57.15;40.38;;;5.30;99.90;;;;;;5092627;28;20499;-80
2022/01/25 03:28:23;;;;;;;53.20;37.43;;;5.30;99.90;;;;;;5094189;28;20040;-80
2022/01/25 03:30:50;;;;;;;54.38;38.05;;;5.20;99.90;;;;;;5093847;28;20044;-81
2022/01/25 03:33:16;;;;;;;56.40;38.95;;;5.20;99.90;;;;;;5059796;28;20048;-81
2022/01/25 03:35:43;;;;;;;55.67;38.70;;;5.20;99.90;;;;;;5075724;28;20048;-82
2022/01/25 03:38:10;;;;;;;58.45;38.95;;;5.20;99.90;;;;;;5093113;28;20446;-81
2022/01/25 03:40:35;;;;;;;56.00;38.42;;;5.20;99.90;;;;;;5094117;28;20505;-81
2022/01/25 03:43:05;;;;;;;56.40;40.33;;;5.20;99.90;;;;;;5093430;28;20099;-81
2022/01/25 03:45:33;;;;;;;56.05;38.25;;;5.20;99.90;;;;;;5076257;28;20051;-80
2022/01/25 03:50:41;;;;;;;56.38;38.70;;;5.20;99.90;;;;;;5092898;28;20059;-80
2022/01/25 03:53:08;;;;;;;52.53;36.92;;;5.20;99.90;;;;;;5092454;28;20048;-80
2022/01/25 03:55:34;;;;;;;57.25;39.38;;;5.20;99.90;;;;;;5093644;28;20070;-80
2022/01/25 03:58:00;;;;;;;52.47;38.83;;;5.20;99.90;;;;;;5092360;28;20048;-80
2022/01/25 04:00:25;;;;;;;54.53;39.07;;;5.20;99.90;;;;;;5092611;28;20135;-80
2022/01/25 04:03:01;;;;;;;56.93;40.17;;;5.20;99.90;;;;;;5091923;28;20285;-81
2022/01/25 04:05:47;;;;;;;56.50;39.42;;;5.20;99.90;;;;;;5092696;28;20055;-80
2022/01/25 04:08:13;;;;;;;54.20;38.75;;;5.20;99.90;;;;;;5092542;28;20048;-81
2022/01/25 04:10:40;;;;;;;57.40;39.63;;;5.20;99.90;;;;;;5092203;28;20476;-81
2022/01/25 04:13:08;;;;;;;55.78;38.08;;;5.20;99.90;;;;;;5092042;28;20048;-81
2022/01/25 04:15:34;;;;;;;52.88;38.05;;;5.20;99.90;;;;;;5092173;28;20044;-80
2022/01/25 04:18:22;;;;;;;58.63;39.03;;;5.10;99.90;;;;;;5075273;28;20048;-81
2022/01/25 04:20:58;;;;;;;57.28;39.85;;;5.20;99.90;;;;;;5093186;28;20059;-81
2022/01/25 04:26:09;;;;;;;53.65;38.45;;;5.20;99.90;;;;;;5092000;28;20128;-81
2022/01/25 04:28:35;;;;;;;53.93;38.13;;;5.20;99.90;;;;;;5093202;28;20048;-81
2022/01/25 04:31:00;;;;;;;57.07;39.27;;;5.20;99.90;;;;;;5091596;28;20500;-81
2022/01/25 04:33:38;;;;;;;60.63;39.17;;;5.20;99.90;;;;;;5091834;28;20146;-81
2022/01/25 04:49:52;;;;;;;52.40;37.47;;;5.20;99.90;;;;;;5092251;28;20095;-81
2022/01/25 04:52:20;;;;;;;53.95;38.35;;;5.20;99.90;;;;;;5075998;28;20048;-81
2022/01/25 04:54:54;;;;;;;56.90;38.22;;;5.20;99.90;;;;;;5091753;28;20044;-80
2022/01/25 05:00:10;;;;;;;57.58;39.20;;;5.30;99.90;;;;;;5091899;28;20093;-80
2022/01/25 05:02:47;;;;;;;58.58;39.10;;;5.20;99.90;;;;;;5075123;28;20109;-80
2022/01/25 05:05:35;;;;;;;54.58;38.17;;;5.20;99.90;;;;;;5076255;28;20132;-80
2022/01/25 05:10:29;;;;;;;56.60;37.50;;;5.20;99.90;;;;;;5093054;28;20048;-80
2022/01/25 05:13:21;;;;;;;65.38;41.45;;;5.20;99.90;;;;;;5091431;28;20051;-80
2022/01/25 05:18:19;;;;;;;58.03;39.10;;;5.20;99.90;;;;;;5092453;28;20875;-80
2022/01/25 05:23:29;;;;;;;58.50;40.83;;;5.20;99.90;;;;;;5092687;28;20109;-80
2022/01/25 05:25:55;;;;;;;60.00;40.73;;;5.20;99.90;;;;;;5091299;28;20055;-83
2022/01/25 05:28:20;;;;;;;59.17;39.87;;;5.20;99.90;;;;;;5091714;28;20043;-80
2022/01/25 05:30:46;;;;;;;56.20;40.20;;;5.20;99.90;;;;;;5091613;28;20044;-80
2022/01/25 05:33:12;;;;;;;57.30;39.63;;;5.10;99.90;;;;;;5090956;28;20048;-80
2022/01/25 05:35:38;;;;;;;58.47;40.63;;;5.10;99.90;;;;;;5092401;28;20051;-80
2022/01/25 05:38:03;;;;;;;61.23;41.03;;;5.10;99.90;;;;;;5092231;28;20104;-80
2022/01/25 05:40:48;;;;;;;60.93;41.07;;;5.20;99.90;;;;;;5091724;28;20075;-80
2022/01/25 05:48:11;;;;;;;58.58;40.60;;;5.20;99.90;;;;;;5094155;28;20464;-80
2022/01/25 05:50:37;;;;;;;60.17;41.70;;;5.10;99.90;;;;;;5096043;28;20044;-80
2022/01/25 05:53:03;;;;;;;60.60;41.33;;;5.20;99.90;;;;;;5095703;28;20043;-80
2022/01/25 05:55:30;;;;;;;57.55;39.38;;;5.20;99.90;;;;;;5094710;28;20051;-80
2022/01/25 05:57:56;;;;;;;61.60;42.78;;;5.20;99.90;;;;;;5095849;28;20109;-80
2022/01/25 06:00:22;;;;;;;61.13;41.50;;;5.10;99.90;;;;;;5094590;28;20083;-80
2022/01/25 06:02:53;;;;;;;60.65;41.38;;;5.10;99.90;;;;;;5061500;28;20402;-80
2022/01/25 06:05:19;;;;;;;61.33;41.10;;;5.10;99.90;;;;;;5095526;28;20921;-80
2022/01/25 06:07:44;;;;;;;62.13;41.93;;;5.10;99.90;;;;;;5078046;28;20048;-80
2022/01/25 06:10:10;;;;;;;67.30;44.60;;;5.10;99.90;;;;;;5095409;28;20040;-81
2022/01/25 06:12:36;;;;;;;61.17;42.17;;;5.10;99.90;;;;;;5094385;28;20054;-79
2022/01/25 06:15:03;;;;;;;62.03;39.80;;;5.20;99.90;;;;;;5095427;28;20040;-81
2022/01/25 06:17:28;;;;;;;61.22;42.50;;;5.10;99.90;;;;;;5095521;28;20079;-80
2022/01/25 06:19:54;;;;;;;58.10;39.60;;;5.10;99.90;;;;;;5094230;28;20083;-80
2022/01/25 06:22:20;;;;;;;57.80;41.40;;;5.10;99.90;;;;;;5095137;28;20044;-81
2022/01/25 06:24:46;;;;;;;61.80;40.70;;;5.10;99.90;;;;;;5094242;28;20503;-80
2022/01/25 06:27:11;;;;;;;62.60;42.57;;;5.10;99.90;;;;;;5095091;28;20055;-80
2022/01/25 06:29:37;;;;;;;62.87;42.97;;;5.10;99.90;;;;;;5094144;28;20079;-80
2022/01/25 06:32:03;;;;;;;59.33;39.77;;;5.20;99.90;;;;;;5093979;28;20040;-80
2022/01/25 06:34:29;;;;;;;60.35;40.92;;;5.10;99.90;;;;;;5094127;28;20083;-79
2022/01/25 06:36:55;;;;;;;58.60;40.47;;;5.10;99.90;;;;;;5094139;28;20080;-80
2022/01/25 06:39:20;;;;;;;57.50;40.50;;;5.10;99.90;;;;;;5093903;28;20059;-80
2022/01/25 06:41:47;;;;;;;61.60;42.23;;;5.10;99.90;;;;;;5095079;28;20126;-85
2022/01/25 06:44:12;;;;;;;58.60;41.22;;;5.20;99.90;;;;;;5093045;28;20067;-81
2022/01/25 06:46:38;;;;;;;55.93;38.83;;;5.20;99.90;;;;;;5095059;28;20048;-81
2022/01/25 06:49:04;;;;;;;58.93;39.47;;;5.10;99.90;;;;;;5093703;28;20065;-82
2022/01/25 06:51:30;;;;;;;59.65;42.22;;;5.10;99.90;;;;;;5093955;28;20079;-73
2022/01/25 06:53:56;;;;;;;60.88;41.97;;;5.10;99.90;;;;;;5093775;28;20048;-74
2022/01/25 06:56:22;;;;;;;63.00;41.93;;;5.20;99.90;;;;;;5094376;28;20082;-74
2022/01/25 06:58:48;;;;;;;56.07;39.30;;;5.20;99.90;;;;;;5094213;28;20046;-74
2022/01/25 07:01:13;;;;;;;58.07;42.10;;;5.10;99.90;;;;;;5094398;28;20136;-75
2022/01/25 07:03:39;;;;;;;62.67;42.10;;;5.20;99.90;;;;;;5094735;28;20090;-74
2022/01/25 07:06:05;;;;;;;64.90;41.33;;;5.10;99.90;;;;;;5093684;28;20123;-80
2022/01/25 07:08:31;;;;;;;64.33;41.93;;;5.10;99.90;;;;;;5094886;28;20483;-74
2022/01/25 07:10:56;;;;;;;58.93;40.73;;;5.10;99.90;;;;;;5094562;28;20102;-75
2022/01/25 07:13:22;;;;;;;60.30;42.83;;;5.10;99.90;;;;;;5094160;28;20104;-76
2022/01/25 07:15:48;;;;;;;61.70;42.33;;;5.10;99.90;;;;;;5094816;28;20036;-87
2022/01/25 07:18:15;;;;;;;58.73;41.90;;;5.10;99.90;;;;;;5094386;28;20044;-75
2022/01/25 07:20:41;;;;;;;59.75;40.65;;;5.10;99.90;;;;;;5094059;28;20511;-75
2022/01/25 07:23:07;;;;;;;58.83;41.22;;;5.10;99.90;;;;;;5094073;28;20391;-80
2022/01/25 07:25:34;;;;;;;64.37;42.50;;;5.10;99.90;;;;;;5094748;28;20032;-75
2022/01/25 07:27:59;;;;;;;65.90;42.92;;;5.10;99.90;;;;;;5093328;28;20400;-75
2022/01/25 07:30:25;;;;;;;63.17;43.17;;;5.10;99.90;;;;;;5076252;28;20042;-75
2022/01/25 07:32:51;;;;;;;65.30;43.73;;;5.10;99.90;;;;;;5093232;28;20575;-75
2022/01/25 07:35:17;;;;;;;60.10;41.13;;;5.10;99.90;;;;;;5093985;28;20131;-75
2022/01/25 07:37:43;;;;;;;62.97;40.67;;;5.10;99.90;;;;;;5094237;28;20077;-75
2022/01/25 07:40:11;;;;;;;60.50;41.03;;;5.10;99.90;;;;;;5094039;28;20134;-77
2022/01/25 07:42:39;;;;;;;62.63;40.38;;;5.10;99.90;;;;;;5093783;28;20446;-75
2022/01/25 07:45:09;;;;;;;57.15;40.25;;;5.10;99.90;;;;;;5094108;28;20121;-75
2022/01/25 07:47:36;;;;;;;61.25;41.65;;;5.10;99.90;;;;;;5094246;28;20040;-75
2022/01/25 07:50:02;;;;;;;60.20;41.13;;;5.10;99.90;;;;;;5094086;28;20055;-75
2022/01/25 07:52:28;;;;;;;61.83;40.38;;;5.10;99.90;;;;;;5093641;28;20135;-75
2022/01/25 07:54:54;;;;;;;61.30;42.10;;;5.10;99.90;;;;;;5092788;28;20119;-75
2022/01/25 07:57:19;;;;;;;56.37;40.17;;;5.10;99.90;;;;;;5093669;28;20056;-75
2022/01/25 07:59:45;;;;;;;59.03;41.00;;;5.10;99.90;;;;;;5093845;28;20396;-75
2022/01/25 08:02:20;;;;;;;63.87;43.60;;;5.00;99.90;;;;;;5093215;28;20135;-76
2022/01/25 08:04:46;;;;;;;58.00;40.75;;;5.10;99.90;;;;;;5059328;28;20087;-75
2022/01/25 08:07:13;;;;;;;59.40;41.27;;;5.00;99.90;;;;;;5093517;28;20075;-76
2022/01/25 08:09:38;;;;;;;60.72;40.72;;;5.00;99.90;;;;;;5093357;28;20077;-75
2022/01/25 08:12:05;;;;;;;58.83;40.87;;;5.00;99.90;;;;;;5092976;28;20040;-75
2022/01/25 08:14:31;;;;;;;64.15;42.13;;;5.10;99.90;;;;;;5093210;28;20044;-75
2022/01/25 08:16:56;;;;;;;61.73;41.57;;;5.10;99.90;;;;;;5093689;28;20047;-75
2022/01/25 08:19:22;;;;;;;59.10;42.40;;;5.10;99.90;;;;;;5093213;28;20802;-75
2022/01/25 08:21:48;;;;;;;64.43;43.27;;;5.10;99.90;;;;;;5093465;28;20197;-75
2022/01/25 08:24:20;;;;;;;64.88;42.17;;;5.10;99.90;;;;;;5093156;28;20051;-76
2022/01/25 08:26:47;;;;;;;60.75;39.45;;;5.10;99.90;;;;;;5092457;28;20047;-75
2022/01/25 08:29:13;;;;;;;60.90;41.60;;;5.10;99.90;;;;;;5093357;28;20055;-75
2022/01/25 08:31:39;;;;;;;63.20;42.45;;;5.00;99.90;;;;;;5093667;28;20086;-75
2022/01/25 08:34:11;;;;;;;61.33;41.90;;;5.10;99.90;;;;;;5093289;28;20097;-75
2022/01/25 08:36:37;;;;;;;59.15;40.58;;;5.10;99.90;;;;;;5093085;28;20047;-75
2022/01/25 08:39:04;;;;;;;59.83;39.35;;;5.10;99.90;;;;;;5092225;28;20044;-75
2022/01/25 08:41:30;;;;;;;60.67;40.47;;;5.00;99.90;;;;;;5093259;28;20047;-75
2022/01/25 08:43:56;;;;;;;59.03;39.87;;;5.10;99.90;;;;;;5093198;28;20150;-76
2022/01/25 08:46:22;;;;;;;60.97;40.90;;;5.10;99.90;;;;;;5093122;28;20730;-75
2022/01/25 08:48:48;;;;;;;59.42;41.03;;;5.10;99.90;;;;;;5093028;28;20042;-75
2022/01/25 08:51:15;;;;;;;59.80;40.50;;;5.10;99.90;;;;;;5093069;28;20123;-75
2022/01/25 08:53:41;;;;;;;57.65;40.50;;;5.10;99.90;;;;;;5092361;28;20485;-75
2022/01/25 08:56:08;;;;;;;60.67;40.83;;;5.10;99.90;;;;;;5092908;28;20093;-75
2022/01/25 08:58:34;;;;;;;59.78;41.38;;;5.20;99.90;;;;;;5092907;28;20084;-75
2022/01/25 09:01:00;;;;;;;62.58;39.83;;;5.10;99.90;;;;;;5093033;28;20098;-75
2022/01/25 09:03:26;;;;;;;61.83;41.13;;;5.10;99.90;;;;;;5092465;28;20040;-74
2022/01/25 09:05:53;;;;;;;57.40;40.60;;;5.10;99.90;;;;;;5093015;28;20067;-74
2022/01/25 09:08:21;;;;;;;63.60;41.08;;;5.10;99.90;;;;;;5092746;28;20220;-75
2022/01/25 09:10:57;;;;;;;59.63;41.42;;;5.10;99.90;;;;;;5093101;28;20040;-74
2022/01/25 09:13:24;;;;;;;62.90;43.38;;;5.10;99.90;;;;;;5092873;28;20048;-75
2022/01/25 09:15:50;;;;;;;61.15;41.78;;;5.10;99.90;;;;;;5092825;28;20040;-74
2022/01/25 09:18:15;;;;;;;69.60;41.90;;;5.10;99.90;;;;;;5092850;28;20079;-74
2022/01/25 09:20:42;;;;;;;62.00;42.57;;;5.10;99.90;;;;;;5092574;28;20144;-74
2022/01/25 09:23:08;;;;;;;61.65;41.42;;;5.10;99.90;;;;;;5095881;28;20052;-74
2022/01/25 09:25:34;;;;;;;61.37;42.40;;;5.10;99.90;;;;;;5096166;28;20446;-75
2022/01/25 09:28:00;;;;;;;64.65;41.25;;;5.20;99.90;;;;;;5096648;28;20814;-74
2022/01/25 09:30:27;;;;;;;59.38;41.28;;;5.20;99.90;;;;;;5096260;28;20098;-74
2022/01/25 09:32:53;;;;;;;58.85;42.08;;;5.10;99.90;;;;;;5096564;28;20055;-74
2022/01/25 09:35:19;;;;;;;57.35;38.78;;;5.10;99.90;;;;;;5096509;28;20036;-80
2022/01/25 09:37:46;;;;;;;62.40;40.53;;;5.20;99.90;;;;;;5096573;28;20040;-74
2022/01/25 09:40:12;;;;;;;67.30;42.38;;;5.20;99.90;;;;;;5096334;28;20101;-74
2022/01/25 09:42:39;;;;;;;62.17;42.20;;;5.20;99.90;;;;;;5094747;28;20481;-74
2022/01/25 09:45:06;;;;;;;60.50;39.60;;;5.20;99.90;;;;;;5096226;28;20131;-74
2022/01/25 09:47:32;;;;;;;58.60;40.35;;;5.20;99.90;;;;;;5095604;28;20549;-74
2022/01/25 09:49:58;;;;;;;67.13;41.50;;;5.20;99.90;;;;;;5096233;28;20130;-74
2022/01/25 09:52:24;;;;;;;60.83;40.30;;;5.30;99.90;;;;;;5096264;28;20048;-74
2022/01/25 09:54:55;;;;;;;64.93;42.83;;;5.20;99.90;;;;;;5095740;28;20506;-74
2022/01/25 09:57:21;;;;;;;62.60;41.35;;;5.20;99.90;;;;;;5078098;28;20456;-74
2022/01/25 09:59:47;;;;;;;59.97;40.38;;;5.20;99.90;;;;;;5096116;28;20069;-74
2022/01/25 10:02:35;;;;;;;60.38;40.85;;;5.20;99.90;;;;;;5095878;28;20117;-74
2022/01/25 10:05:25;;;;;;;66.55;41.30;;;5.20;99.90;;;;;;5095994;28;20047;-74
2022/01/25 10:07:56;;;;;;;61.75;41.45;;;5.20;99.90;;;;;;5096042;28;20139;-74
2022/01/25 10:10:23;;;;;;;60.10;40.20;;;5.20;99.90;;;;;;5095727;28;20044;-74
2022/01/25 10:12:49;;;;;;;62.97;40.40;;;5.20;99.90;;;;;;5095863;28;20052;-74
2022/01/25 10:15:14;;;;;;;64.63;43.90;;;5.20;99.90;;;;;;5095891;28;20067;-74
2022/01/25 10:17:42;;;;;;;60.93;40.53;;;5.20;99.90;;;;;;5095561;28;20135;-74
2022/01/25 10:20:25;;;;;;;61.45;40.60;;;5.20;99.90;;;;;;5095870;28;20134;-74
2022/01/25 10:22:51;;;;;;;64.85;42.85;;;5.20;99.90;;;;;;5095705;28;20044;-74
2022/01/25 10:25:29;;;;;;;67.17;40.30;;;5.20;99.90;;;;;;5095661;28;20487;-74
2022/01/25 10:28:03;;;;;;;59.55;41.85;;;5.20;99.90;;;;;;5095548;28;20051;-74
2022/01/25 10:30:39;;;;;;;64.78;41.58;;;5.20;99.90;;;;;;5095186;28;20606;-74
2022/01/25 10:33:23;;;;;;;64.25;43.63;;;5.20;99.90;;;;;;5095114;28;20052;-74
2022/01/25 10:35:49;;;;;;;61.60;40.65;;;5.20;99.90;;;;;;5095121;28;20153;-74
2022/01/25 10:38:33;;;;;;;65.03;42.03;;;5.30;99.90;;;;;;5095492;28;20496;-74
2022/01/25 10:41:05;;;;;;;60.42;40.92;;;5.30;99.90;;;;;;5095386;28;20044;-74
2022/01/25 10:43:32;;;;;;;66.13;42.97;;;5.30;99.90;;;;;;5095194;28;20441;-74
2022/01/25 10:46:12;;;;;;;64.47;41.95;;;5.20;99.90;;;;;;5094780;28;20506;-74
2022/01/25 10:48:45;;;;;;;66.10;42.58;;;5.20;99.90;;;;;;5094871;28;20059;-74
2022/01/25 10:51:14;;;;;;;64.20;42.53;;;5.20;99.90;;;;;;5095021;28;20503;-74
2022/01/25 10:53:40;;;;;;;66.07;42.88;;;5.20;99.90;;;;;;5094765;28;20086;-74
2022/01/25 10:56:07;;;;;;;69.43;44.25;;;5.20;99.90;;;;;;5094953;28;20044;-74
2022/01/25 10:58:41;;;;;;;65.07;42.65;;;5.20;99.90;;;;;;5094706;28;20419;-74
2022/01/25 11:01:10;;;;;;;68.20;43.65;;;5.20;99.90;;;;;;5095027;28;20076;-74
2022/01/25 11:03:40;;;;;;;71.28;44.63;;;5.20;99.90;;;;;;5094584;28;20059;-74
2022/01/25 11:06:10;;;;;;;70.53;45.20;;;5.20;99.90;;;;;;5093727;28;20063;-74
2022/01/25 11:08:37;;;;;;;68.47;44.35;;;5.20;99.90;;;;;;5094494;28;20054;-74
2022/01/25 11:11:06;;;;;;;67.40;42.90;;;5.30;99.90;;;;;;5094635;28;20167;-74
2022/01/25 11:13:36;;;;;;;64.80;42.97;;;5.30;99.90;;;;;;5093659;28;20055;-74
2022/01/25 11:16:05;;;;;;;71.72;44.47;;;5.30;99.90;;;;;;5094554;28;20051;-74
2022/01/25 11:18:32;;;;;;;67.88;44.97;;;5.30;99.90;;;;;;5094331;28;20073;-75
2022/01/25 11:21:00;;;;;;;66.95;44.42;;;5.30;99.90;;;;;;5093484;28;20040;-74
2022/01/25 11:23:27;;;;;;;68.10;44.28;;;5.30;99.90;;;;;;5093593;28;20051;-74
2022/01/25 11:25:54;;;;;;;66.00;43.88;;;5.30;99.90;;;;;;5094309;28;20040;-74
2022/01/25 11:28:19;;;;;;;63.63;42.95;;;5.30;99.90;;;;;;5094146;28;20510;-74
2022/01/25 11:30:47;;;;;;;64.67;43.00;;;5.30;99.90;;;;;;5093655;28;20040;-74
2022/01/25 11:33:13;;;;;;;65.57;43.47;;;5.30;99.90;;;;;;5094263;28;20131;-74
2022/01/25 11:35:40;;;;;;;65.53;41.78;;;5.30;99.90;;;;;;5093985;28;20101;-74
2022/01/25 11:38:06;;;;;;;65.57;44.58;;;5.30;99.90;;;;;;5094159;28;20055;-74
2022/01/25 11:40:39;;;;;;;68.22;43.53;;;5.30;99.90;;;;;;5093833;28;20059;-75
2022/01/25 11:43:08;;;;;;;67.88;42.90;;;5.30;99.90;;;;;;5094137;28;20048;-74
2022/01/25 11:45:40;;;;;;;72.20;44.88;;;5.40;99.90;;;;;;5093241;28;20127;-74
2022/01/25 11:48:06;;;;;;;67.22;43.22;;;5.40;99.90;;;;;;5092791;28;20056;-74
2022/01/25 11:50:37;;;;;;;63.73;43.60;;;5.40;99.90;;;;;;5093868;28;20118;-74
2022/01/25 11:53:14;;;;;;;71.25;43.95;;;5.40;99.90;;;;;;5093922;28;20044;-74
2022/01/25 11:55:51;;;;;;;66.43;43.88;;;5.30;99.90;;;;;;5093606;28;20043;-74
2022/01/25 11:58:33;;;;;;;64.63;41.20;;;5.30;99.90;;;;;;5093089;28;20427;-74
2022/01/25 12:01:19;;;;;;;67.15;42.88;;;5.30;99.90;;;;;;5094071;28;20036;-74
2022/01/25 12:03:48;;;;;;;60.60;41.47;;;5.40;99.90;;;;;;5093464;28;20079;-74
2022/01/25 12:06:23;;;;;;;64.55;41.28;;;5.30;99.90;;;;;;5093840;28;20422;-74
2022/01/25 12:12:07;;;;;;;63.42;40.03;;;5.30;99.90;;;;;;5093574;28;20411;-74
2022/01/25 12:14:46;;;;;;;66.03;41.90;;;5.30;99.90;;;;;;5093552;28;20044;-74
2022/01/25 12:17:16;;;;;;;64.20;41.70;;;5.30;99.90;;;;;;5093803;28;20048;-74
2022/01/25 12:19:50;;;;;;;67.05;42.33;;;5.30;99.90;;;;;;5093373;28;20127;-74
2022/01/25 12:22:39;;;;;;;66.22;42.88;;;5.30;99.90;;;;;;5093527;28;20059;-74
2022/01/25 12:25:29;;;;;;;64.25;42.58;;;5.30;99.90;;;;;;5093751;28;20139;-74
2022/01/25 12:28:01;;;;;;;65.40;42.25;;;5.30;99.90;;;;;;5092241;28;20040;-74
2022/01/25 12:30:30;;;;;;;73.30;43.90;;;5.40;99.90;;;;;;5093571;28;20074;-74
2022/01/25 12:33:03;;;;;;;65.47;44.33;;;5.30;99.90;;;;;;5093416;28;20056;-74
2022/01/25 12:35:42;;;;;;;66.75;41.65;;;5.40;99.90;;;;;;5093507;28;20052;-74
2022/01/25 12:38:15;;;;;;;63.20;40.85;;;5.40;99.90;;;;;;5093275;28;20048;-74
2022/01/25 12:41:01;;;;;;;69.28;43.65;;;5.40;99.90;;;;;;5092983;28;20136;-74
2022/01/25 12:43:34;;;;;;;63.83;42.80;;;5.40;99.90;;;;;;5092877;28;20048;-74
2022/01/25 12:46:12;;;;;;;66.03;43.45;;;5.40;99.90;;;;;;5092532;28;20131;-74
2022/01/25 12:48:50;;;;;;;60.65;41.38;;;5.30;99.90;;;;;;5093069;28;20055;-80
2022/01/25 12:51:30;;;;;;;61.30;41.45;;;5.40;99.90;;;;;;5093474;28;20212;-74
2022/01/25 12:53:58;;;;;;;60.28;40.67;;;5.30;99.90;;;;;;5092938;28;20059;-74
2022/01/25 12:56:40;;;;;;;63.28;42.33;;;5.30;99.90;;;;;;5093309;28;20426;-74
2022/01/25 12:59:21;;;;;;;70.28;45.05;;;5.40;99.90;;;;;;5097567;28;20051;-74
2022/01/25 13:01:48;;;;;;;65.85;43.25;;;5.40;99.90;;;;;;5097029;28;20054;-74
2022/01/25 13:04:14;;;;;;;64.05;42.90;;;5.30;99.90;;;;;;5096269;28;20051;-74
2022/01/25 13:06:46;;;;;;;61.42;41.03;;;5.30;99.90;;;;;;5079307;28;20054;-80
2022/01/25 13:09:24;;;;;;;64.00;41.42;;;5.30;99.90;;;;;;5097136;28;20044;-74
2022/01/25 13:12:13;;;;;;;63.17;42.33;;;5.30;99.90;;;;;;5096896;28;20040;-74
2022/01/25 13:14:51;;;;;;;64.60;41.35;;;5.30;99.90;;;;;;5096029;28;20468;-74
2022/01/25 13:17:23;;;;;;;60.85;39.60;;;5.30;99.90;;;;;;5096788;28;20582;-74
2022/01/25 13:19:58;;;;;;;65.85;42.88;;;5.30;99.90;;;;;;5095792;28;20509;-74
2022/01/25 13:22:40;;;;;;;68.47;41.45;;;5.30;99.90;;;;;;5096915;28;20035;-74
2022/01/25 13:25:26;;;;;;;63.00;41.58;;;5.40;99.90;;;;;;5095666;28;20088;-74
2022/01/25 13:27:57;;;;;;;64.93;41.60;;;5.40;99.90;;;;;;5096237;28;20514;-74
2022/01/25 13:33:18;;;;;;;65.53;42.50;;;5.40;99.90;;;;;;5096622;28;20496;-74
2022/01/25 13:35:50;;;;;;;59.72;38.45;;;5.40;99.90;;;;;;5096333;28;20036;-74
2022/01/25 13:38:26;;;;;;;63.53;40.45;;;5.40;99.90;;;;;;5096595;28;20577;-74
2022/01/25 13:46:34;;;;;;;70.05;41.88;;;5.30;99.90;;;;;;5096054;28;20143;-74
2022/01/25 13:49:06;;;;;;;59.75;39.38;;;5.30;99.90;;;;;;5096192;28;20048;-74
2022/01/25 13:51:50;;;;;;;67.57;43.17;;;5.30;99.90;;;;;;5096471;28;20113;-74
2022/01/25 13:54:19;;;;;;;70.55;41.63;;;5.30;99.90;;;;;;5096532;28;20078;-75
2022/01/25 13:56:45;;;;;;;65.80;42.85;;;5.30;99.90;;;;;;5096056;28;20040;-74
2022/01/25 13:59:11;;;;;;;63.67;41.75;;;5.30;99.90;;;;;;5095900;28;20047;-72
2022/01/25 14:01:40;;;;;;;70.87;42.20;;;5.20;99.90;;;;;;5094794;28;20400;-72
2022/01/25 14:04:19;;;;;;;66.15;42.10;;;5.20;99.90;;;;;;5095497;28;20055;-72
2022/01/25 14:06:52;;;;;;;71.30;42.20;;;5.20;99.90;;;;;;5095883;28;20365;-73
2022/01/25 14:09:25;;;;;;;66.35;39.03;;;5.30;99.90;;;;;;5093885;28;20585;-73
2022/01/25 14:21:39;;;;;;;70.95;42.95;;;5.20;99.90;;;;;;5094651;28;20051;-74
2022/01/25 14:23:23;;;;;;;70.65;44.10;;;5.20;99.90;;;;;;5095179;28;20522;-73
2022/01/25 14:25:57;;;;;;;67.30;42.45;;;5.30;99.90;;;;;;5094369;28;20053;-74
2022/01/25 14:28:25;;;;;;;68.00;40.15;;;5.20;99.90;;;;;;5095618;28;20086;-73
2022/01/25 14:30:54;;;;;;;72.70;42.58;;;5.30;99.90;;;;;;5095394;28;20040;-74
2022/01/25 14:33:23;;;;;;;71.75;42.17;;;5.30;99.90;;;;;;5095471;28;20044;-73
2022/01/25 14:36:00;;;;;;;69.97;42.70;;;5.30;99.90;;;;;;5095623;28;20428;-76
2022/01/25 14:38:36;;;;;;;67.97;40.83;;;5.30;99.90;;;;;;5095605;28;20059;-73
2022/01/25 14:41:09;;;;;;;65.03;41.13;;;5.30;99.90;;;;;;5095213;28;20040;-73
2022/01/25 14:43:47;;;;;;;70.82;44.30;;;5.20;99.90;;;;;;5095586;28;20085;-73
2022/01/25 14:46:17;;;;;;;71.65;43.70;;;5.20;99.90;;;;;;5095031;28;20059;-73
2022/01/25 14:48:45;;;;;;;80.13;44.90;;;5.20;99.90;;;;;;5095230;28;20055;-73